Time;durP1;ratioP1;P1;durP2;ratioP2;P2;SDS_P1;SDS_P2;PMS_P1;PMS_P2;Temp;Humidity;BMP_temperature;BMP_pressure;BME280_temperature;BME280_humidity;BME280_pressure;Samples;Min_cycle;Max_cycle;Signal;HPM_P1;HPM_P2
2022/02/01 00:01:52;;;;;;;31.65;6.90;;;;;;;7.04;54.56;100809.66;4916024;28;99013;-78
2022/02/01 00:04:29;;;;;;;30.65;6.80;;;;;;;7.24;54.02;100807.47;4917771;28;98851;-78
2022/02/01 00:07:05;;;;;;;30.70;6.07;;;;;;;7.28;54.11;100797.78;4917106;28;96849;-78
2022/02/01 00:09:39;;;;;;;31.02;6.80;;;;;;;7.22;54.13;100790.88;4915702;28;97124;-78
2022/02/01 00:12:14;;;;;;;47.08;7.32;;;;;;;7.29;54.44;100797.72;4915496;28;99850;-79
2022/02/01 00:15:05;;;;;;;27.55;6.18;;;;;;;7.59;53.42;100797.09;4917391;28;99037;-78
2022/02/01 00:17:51;;;;;;;31.80;6.82;;;;;;;7.00;54.90;100806.22;4916388;28;97314;-78
2022/02/01 00:20:36;;;;;;;39.03;8.23;;;;;;;6.63;56.61;100813.09;4910207;28;96787;-77
2022/02/01 00:34:13;;;;;;;31.17;6.70;;;;;;;6.49;57.53;100833.47;4910456;28;97194;-77
2022/02/01 00:36:46;;;;;;;33.55;7.45;;;;;;;6.77;57.04;100838.19;4912945;28;98844;-77
2022/02/01 00:39:14;;;;;;;37.38;6.47;;;;;;;7.13;56.02;100835.75;4914601;28;96729;-77
2022/02/01 00:41:47;;;;;;;29.05;6.07;;;;;;;6.90;56.32;100837.94;4913820;28;97384;-78
2022/02/01 00:44:14;;;;;;;39.97;7.07;;;;;;;7.04;56.16;100839.41;4906585;28;99574;-78
2022/02/01 00:46:41;;;;;;;32.90;6.60;;;;;;;6.75;56.53;100836.50;4914750;28;100188;-78
2022/02/01 00:49:08;;;;;;;37.38;6.40;;;;;;;7.22;55.67;100838.19;4916242;28;96769;-79
2022/02/01 00:51:34;;;;;;;34.35;8.02;;;;;;;6.61;57.59;100846.38;4913707;28;97705;-77
2022/02/01 00:54:00;;;;;;;35.40;7.47;;;;;;;6.70;57.76;100846.19;4918188;28;99033;-78
2022/02/01 00:56:27;;;;;;;40.08;6.75;;;;;;;6.62;57.26;100851.59;4915162;28;97792;-77
2022/02/01 00:58:53;;;;;;;38.35;7.88;;;;;;;6.58;57.43;100849.91;4916964;28;97988;-77
2022/02/01 01:01:20;;;;;;;43.78;6.80;;;;;;;6.90;57.08;100858.97;4920148;28;97385;-77
2022/02/01 01:03:48;;;;;;;51.00;7.78;;;;;;;6.51;57.62;100861.41;4914962;28;98962;-77
2022/02/01 01:06:15;;;;;;;43.33;8.10;;;;;;;6.48;57.94;100864.09;4913225;28;99212;-78
2022/02/01 01:08:41;;;;;;;31.75;7.10;;;;;;;6.66;57.89;100855.91;4914238;28;96835;-78
2022/02/01 01:11:08;;;;;;;35.47;7.38;;;;;;;6.83;57.60;100860.84;4912716;28;96879;-78
2022/02/01 01:14:03;;;;;;;32.80;7.72;;;;;;;6.77;57.06;100845.19;4915076;28;98242;-78
2022/02/01 01:16:51;;;;;;;36.40;7.07;;;;;;;7.12;56.41;100850.66;4913704;28;98906;-79
2022/02/01 01:43:30;;;;;;;29.45;6.70;;;;;;;6.17;58.83;100826.16;4913855;28;96878;-77
2022/02/01 01:44:39;;;;;;;30.88;8.98;;;;;;;6.24;58.58;100831.22;4834271;29;96853;-77
2022/02/01 01:53:18;;;;;;;30.05;6.85;;;;;;;6.11;59.06;100834.09;4891694;28;96933;-80
2022/02/01 01:56:15;;;;;;;;;;;;;;;;;;;;;
2022/02/01 01:58:42;;;;;;;38.63;9.43;;;;;;;5.64;60.85;100830.41;4854098;28;127244;-81
2022/02/01 02:01:17;;;;;;;35.65;8.57;;;;;;;6.24;59.28;100820.75;4891305;28;98872;-80
2022/02/01 02:03:47;;;;;;;34.13;9.23;;;;;;;6.40;58.44;100826.59;4889343;28;96762;-79
2022/02/01 02:06:20;;;;;;;34.97;8.98;;;;;;;6.56;58.15;100822.84;4889567;28;96845;-79
2022/02/01 02:08:50;;;;;;;28.02;9.73;;;;;;;5.74;60.35;100828.50;4892058;28;98789;-79
2022/02/01 02:11:27;;;;;;;31.27;8.00;;;;;;;6.32;58.56;100815.38;4893650;28;98281;-79
2022/02/01 02:16:41;;;;;;;31.73;8.93;;;;;;;5.95;59.63;100822.97;4883704;28;97174;-79
2022/02/01 02:19:09;;;;;;;33.30;9.32;;;;;;;6.00;59.75;100823.78;4892256;28;98940;-78
2022/02/01 02:21:38;;;;;;;39.63;9.90;;;;;;;6.36;58.64;100830.19;4893078;28;98936;-78
2022/02/01 02:24:06;;;;;;;39.50;9.05;;;;;;;6.44;58.02;100828.28;4892614;28;97095;-78
2022/02/01 02:26:33;;;;;;;31.45;8.63;;;;;;;6.62;57.73;100832.34;4890952;28;97058;-77
2022/02/01 02:29:00;;;;;;;36.10;8.68;;;;;;;6.49;58.24;100825.59;4885981;28;99016;-78
2022/02/01 02:31:27;;;;;;;32.78;9.40;;;;;;;6.50;58.46;100828.16;4899621;28;98911;-78
2022/02/01 02:33:58;;;;;;;35.75;9.90;;;;;;;6.48;58.48;100824.72;4900224;28;98100;-76
2022/02/01 02:36:25;;;;;;;39.67;10.65;;;;;;;6.69;57.97;100826.97;4891511;28;96732;-78
2022/02/01 02:38:58;;;;;;;30.92;9.18;;;;;;;6.38;58.94;100817.88;4889641;28;99132;-79
2022/02/01 02:41:34;;;;;;;42.40;9.93;;;;;;;6.78;57.76;100818.03;4892255;28;99163;-79
2022/02/01 02:46:47;;;;;;;30.25;10.48;;;;;;;6.71;58.32;100816.41;4887711;28;96728;-77
2022/02/01 02:49:19;;;;;;;33.03;9.48;;;;;;;6.87;57.57;100823.13;4885262;28;99186;-78
2022/02/01 02:51:46;;;;;;;32.17;10.30;;;;;;;6.41;59.69;100823.09;4887190;28;99087;-78
2022/02/01 02:54:15;;;;;;;30.10;9.30;;;;;;;7.27;56.90;100820.56;4891332;28;96774;-77
2022/02/01 02:56:47;;;;;;;33.85;9.98;;;;;;;6.74;58.45;100825.13;4894388;28;96874;-79
2022/02/01 02:59:15;;;;;;;34.22;10.85;;;;;;;6.18;60.80;100822.59;4893301;28;99489;-78
2022/02/01 03:01:43;;;;;;;35.97;11.15;;;;;;;6.85;58.61;100821.41;4894552;28;98770;-79
2022/02/01 03:04:09;;;;;;;34.58;10.70;;;;;;;6.76;58.49;100820.69;4893684;28;96817;-80
2022/02/01 03:06:35;;;;;;;38.58;11.93;;;;;;;6.59;59.29;100817.50;4898027;28;96827;-78
2022/02/01 03:09:02;;;;;;;35.08;10.70;;;;;;;6.83;57.99;100813.56;4891652;28;102875;-80
2022/02/01 03:11:30;;;;;;;32.95;10.90;;;;;;;6.88;57.44;100819.63;4890964;28;99103;-80
2022/02/01 03:13:59;;;;;;;31.58;11.55;;;;;;;6.72;58.41;100818.16;4896969;28;96868;-80
2022/02/01 03:16:46;;;;;;;33.67;11.00;;;;;;;7.02;57.77;100817.56;4896999;28;96901;-78
2022/02/01 03:21:57;;;;;;;33.60;10.48;;;;;;;6.63;58.62;100813.09;4886525;28;97100;-78
2022/02/01 03:24:23;;;;;;;37.50;11.27;;;;;;;7.00;57.74;100800.97;4894666;28;96760;-77
2022/02/01 03:26:51;;;;;;;36.92;11.52;;;;;;;6.79;58.04;100802.25;4893679;28;96877;-78
2022/02/01 03:29:17;;;;;;;36.15;11.38;;;;;;;7.13;56.88;100794.56;4895992;28;99369;-79
2022/02/01 03:31:43;;;;;;;33.25;10.95;;;;;;;7.22;56.57;100794.38;4895718;28;99308;-79
2022/02/01 03:34:10;;;;;;;29.85;10.48;;;;;;;7.03;57.04;100798.28;4892061;28;96888;-79
2022/02/01 03:36:36;;;;;;;38.25;11.07;;;;;;;7.36;56.12;100799.34;4895862;28;98210;-79
2022/02/01 03:39:02;;;;;;;32.30;10.98;;;;;;;7.73;55.13;100798.53;4893218;28;99348;-80
2022/02/01 03:41:29;;;;;;;36.70;10.98;;;;;;;7.63;55.26;100804.88;4895035;28;98139;-80
2022/02/01 03:43:57;;;;;;;25.15;10.60;;;;;;;7.64;54.81;100806.63;4892760;28;97258;-79
2022/02/01 03:46:23;;;;;;;33.53;11.52;;;;;;;7.35;55.71;100813.38;4891709;28;96935;-79
2022/02/01 03:48:49;;;;;;;32.53;11.23;;;;;;;7.33;55.49;100814.31;4891969;28;99357;-79
2022/02/01 03:51:16;;;;;;;32.70;10.68;;;;;;;7.40;55.37;100823.81;4894121;28;99169;-78
2022/02/01 03:53:42;;;;;;;35.13;11.10;;;;;;;7.44;55.21;100826.34;4896809;28;97626;-78
2022/02/01 03:56:08;;;;;;;34.97;11.93;;;;;;;6.88;56.95;100837.13;4890882;28;96899;-79
2022/02/01 03:58:35;;;;;;;34.65;11.27;;;;;;;7.36;55.22;100833.50;4894564;28;101201;-78
2022/02/01 04:01:03;;;;;;;30.85;11.00;;;;;;;7.11;56.48;100827.03;4894990;28;99060;-78
2022/02/01 04:03:30;;;;;;;36.78;11.27;;;;;;;7.33;55.79;100833.59;4893747;28;97242;-79
2022/02/01 04:05:56;;;;;;;35.05;12.40;;;;;;;7.26;55.77;100834.59;4888674;28;96955;-78
2022/02/01 04:08:23;;;;;;;34.35;11.68;;;;;;;7.02;56.33;100819.34;4894981;28;99018;-78
2022/02/01 04:10:50;;;;;;;27.88;11.15;;;;;;;6.89;56.32;100805.59;4893475;28;99254;-79
2022/02/01 04:13:17;;;;;;;36.65;11.90;;;;;;;6.71;57.69;100809.41;4887999;28;96817;-79
2022/02/01 04:15:44;;;;;;;34.78;11.93;;;;;;;7.18;56.04;100805.84;4893357;28;96965;-78
2022/02/01 04:18:12;;;;;;;40.42;13.40;;;;;;;6.61;57.54;100788.63;4911688;28;98395;-79
2022/02/01 04:20:39;;;;;;;34.63;13.43;;;;;;;6.87;57.13;100803.88;4906803;28;99307;-78
2022/02/01 04:23:05;;;;;;;33.70;12.13;;;;;;;6.82;57.01;100797.84;4915219;28;96563;-78
2022/02/01 04:25:32;;;;;;;33.05;12.88;;;;;;;6.47;57.95;100796.75;4917454;28;96444;-79
2022/02/01 04:27:58;;;;;;;34.47;12.77;;;;;;;6.24;58.67;100791.88;4912009;28;98177;-78
2022/02/01 04:30:25;;;;;;;37.83;13.48;;;;;;;6.88;57.34;100781.97;4919038;28;97987;-79
2022/02/01 04:32:53;;;;;;;37.92;13.45;;;;;;;6.66;57.30;100777.13;4916361;28;96516;-78
2022/02/01 04:35:24;;;;;;;43.38;14.15;;;;;;;6.87;56.62;100765.34;4913721;28;96689;-79
2022/02/01 04:37:53;;;;;;;32.72;12.93;;;;;;;5.90;60.00;100761.88;4893301;28;99170;-79
2022/02/01 04:40:20;;;;;;;31.88;12.50;;;;;;;6.42;58.49;100759.22;4892338;28;98881;-78
2022/02/01 04:42:46;;;;;;;32.72;13.10;;;;;;;7.07;56.73;100749.16;4896331;28;96636;-78
2022/02/01 04:45:18;;;;;;;32.63;12.65;;;;;;;7.25;55.91;100750.53;4890534;28;98840;-78
2022/02/01 04:47:46;;;;;;;33.88;12.65;;;;;;;6.86;56.54;100745.22;4890805;28;98965;-78
2022/02/01 04:50:14;;;;;;;36.45;13.30;;;;;;;6.96;56.66;100745.88;4894895;28;98865;-78
2022/02/01 04:52:45;;;;;;;36.20;13.73;;;;;;;7.15;55.64;100744.63;4890596;28;96817;-78
2022/02/01 04:55:13;;;;;;;34.75;13.80;;;;;;;6.30;58.33;100747.16;4894905;28;96826;-78
2022/02/01 04:57:50;;;;;;;32.90;12.88;;;;;;;6.79;57.33;100739.22;4892127;28;99548;-78
2022/02/01 05:00:16;;;;;;;36.08;13.35;;;;;;;7.04;56.21;100741.34;4908595;28;99308;-78
2022/02/01 05:02:42;;;;;;;28.60;13.48;;;;;;;7.45;54.99;100746.56;4910124;28;95916;-79
2022/02/01 05:05:09;;;;;;;32.20;11.73;;;;;;;7.50;55.02;100741.19;4915431;28;96590;-77
2022/02/01 05:07:35;;;;;;;34.90;12.88;;;;;;;7.41;54.86;100737.03;4909901;28;98033;-76
2022/02/01 05:10:03;;;;;;;35.38;12.70;;;;;;;7.36;55.11;100738.88;4905062;28;99771;-78
2022/02/01 05:12:36;;;;;;;32.42;12.18;;;;;;;7.50;54.78;100736.81;4892230;28;97507;-78
2022/02/01 05:15:06;;;;;;;32.13;12.95;;;;;;;6.99;56.41;100744.06;4891313;28;96816;-79
2022/02/01 05:17:34;;;;;;;32.88;11.93;;;;;;;6.91;57.31;100747.75;4894243;28;98900;-78
2022/02/01 05:20:09;;;;;;;27.30;11.95;;;;;;;6.68;57.22;100733.34;4892522;28;99284;-78
2022/02/01 05:22:36;;;;;;;23.65;12.00;;;;;;;6.43;58.62;100739.94;4893211;28;96757;-77
2022/02/01 05:25:04;;;;;;;30.20;13.45;;;;;;;6.77;58.05;100724.38;4892743;28;96835;-78
2022/02/01 05:27:30;;;;;;;32.20;12.00;;;;;;;6.74;58.40;100733.22;4895091;28;97933;-78
2022/02/01 05:29:57;;;;;;;27.00;12.35;;;;;;;6.95;58.13;100738.91;4894032;28;99439;-78
2022/02/01 05:32:25;;;;;;;30.40;12.60;;;;;;;7.11;57.47;100742.94;4896522;28;97111;-78
2022/02/01 05:34:52;;;;;;;25.88;11.65;;;;;;;6.91;58.09;100747.75;4892378;28;98869;-77
2022/02/01 05:37:19;;;;;;;26.45;11.60;;;;;;;6.58;59.19;100744.88;4892296;28;101114;-78
2022/02/01 05:39:45;;;;;;;26.27;11.60;;;;;;;6.82;58.63;100742.69;4889325;28;98970;-77
2022/02/01 05:42:17;;;;;;;25.52;11.35;;;;;;;6.88;58.42;100739.94;4890126;28;98553;-78
2022/02/01 05:44:43;;;;;;;22.92;10.85;;;;;;;6.66;59.26;100758.75;4889857;28;96782;-78
2022/02/01 05:47:10;;;;;;;29.73;11.82;;;;;;;6.73;58.74;100755.09;4887375;28;101835;-77
2022/02/01 05:49:36;;;;;;;21.90;11.43;;;;;;;6.76;59.21;100757.66;4890451;28;99162;-79
2022/02/01 05:52:03;;;;;;;25.17;11.48;;;;;;;6.56;59.57;100770.34;4888921;28;97247;-79
2022/02/01 05:54:30;;;;;;;22.20;11.02;;;;;;;6.18;61.29;100763.13;4892989;28;96794;-79
2022/02/01 05:56:58;;;;;;;25.73;11.85;;;;;;;5.65;62.56;100763.94;4892811;28;99560;-79
2022/02/01 05:59:25;;;;;;;25.02;12.80;;;;;;;6.30;61.38;100762.06;4888769;28;98902;-79
2022/02/01 06:01:52;;;;;;;28.30;12.57;;;;;;;6.20;61.40;100763.97;4891004;28;96817;-78
2022/02/01 06:04:18;;;;;;;27.98;11.93;;;;;;;5.83;62.02;100766.31;4895378;28;96787;-77
2022/02/01 06:06:45;;;;;;;25.15;12.70;;;;;;;6.55;60.35;100772.97;4890229;28;99252;-77
2022/02/01 06:09:11;;;;;;;27.13;11.50;;;;;;;6.47;60.67;100774.88;4893559;28;101008;-76
2022/02/01 06:11:37;;;;;;;24.25;12.05;;;;;;;6.19;61.01;100775.34;4893377;28;97243;-78
2022/02/01 06:14:04;;;;;;;29.65;11.93;;;;;;;6.69;60.10;100779.72;4886714;28;96894;-77
2022/02/01 06:16:32;;;;;;;32.65;12.15;;;;;;;6.56;59.98;100778.22;4888351;28;101006;-79
2022/02/01 06:18:58;;;;;;;24.02;11.82;;;;;;;6.51;60.04;100774.78;4895482;28;99055;-78
2022/02/01 06:21:25;;;;;;;32.83;12.63;;;;;;;6.43;60.72;100784.56;4894594;28;96838;-77
2022/02/01 06:23:51;;;;;;;27.20;11.68;;;;;;;6.49;60.43;100779.22;4892533;28;97027;-78
2022/02/01 06:26:20;;;;;;;24.38;11.90;;;;;;;6.72;59.69;100782.25;4894800;28;97653;-77
2022/02/01 06:28:47;;;;;;;22.67;12.13;;;;;;;6.06;62.25;100778.19;4893720;28;98858;-77
2022/02/01 06:31:13;;;;;;;28.55;12.45;;;;;;;5.89;62.31;100791.59;4888849;28;97175;-76
2022/02/01 06:33:40;;;;;;;24.30;11.80;;;;;;;6.54;60.63;100797.50;4887848;28;96879;-77
2022/02/01 06:36:07;;;;;;;33.45;12.30;;;;;;;6.47;60.56;100807.25;4890787;28;98764;-75
2022/02/01 06:38:33;;;;;;;28.10;12.07;;;;;;;6.81;59.52;100796.97;4899051;28;98841;-77
2022/02/01 06:41:00;;;;;;;28.95;12.40;;;;;;;6.57;60.28;100798.28;4897444;28;96936;-77
2022/02/01 06:43:27;;;;;;;29.52;12.32;;;;;;;6.74;59.54;100804.13;4899543;28;97241;-77
2022/02/01 06:45:53;;;;;;;30.63;12.38;;;;;;;6.95;59.27;100801.97;4900589;28;100992;-76
2022/02/01 06:48:20;;;;;;;34.92;11.90;;;;;;;6.27;61.11;100791.84;4897797;28;98613;-78
2022/02/01 06:50:48;;;;;;;33.72;12.38;;;;;;;5.87;62.59;100796.88;4896870;28;97207;-78
2022/02/01 06:53:14;;;;;;;31.42;10.88;;;;;;;6.28;61.48;100790.94;4899630;28;96882;-74
2022/02/01 06:55:55;;;;;;;38.33;12.27;;;;;;;7.03;59.45;100786.88;4899960;28;98560;-78
2022/02/01 06:58:22;;;;;;;31.45;12.45;;;;;;;6.76;59.61;100789.16;4890896;28;98832;-78
2022/02/01 07:00:48;;;;;;;32.40;11.77;;;;;;;6.44;60.47;100770.53;4898445;28;97248;-77
2022/02/01 07:03:14;;;;;;;33.15;11.23;;;;;;;6.44;60.66;100775.78;4895837;28;98725;-79
2022/02/01 07:05:41;;;;;;;30.98;10.55;;;;;;;6.47;60.45;100773.13;4891972;28;99384;-77
2022/02/01 07:08:08;;;;;;;25.83;10.90;;;;;;;6.41;60.29;100775.84;4898526;28;98904;-78
2022/02/01 07:10:35;;;;;;;30.67;10.32;;;;;;;6.07;61.51;100785.19;4899234;28;97005;-77
2022/02/01 07:13:01;;;;;;;24.85;10.77;;;;;;;6.37;61.61;100784.66;4900162;28;96979;-79
2022/02/01 07:15:27;;;;;;;28.33;10.15;;;;;;;6.35;61.14;100770.72;4892852;28;99380;-77
2022/02/01 07:17:55;;;;;;;29.20;10.65;;;;;;;6.19;61.45;100767.47;4897603;28;99747;-77
2022/02/01 07:20:23;;;;;;;26.50;10.07;;;;;;;6.76;59.50;100783.91;4901714;28;96894;-79
2022/02/01 07:22:50;;;;;;;29.38;9.38;;;;;;;6.76;59.48;100773.41;4900837;28;96782;-78
2022/02/01 07:25:24;;;;;;;27.70;9.50;;;;;;;6.22;60.78;100767.44;4894510;28;99001;-78
2022/02/01 07:27:51;;;;;;;25.65;9.38;;;;;;;6.56;59.39;100775.59;4897975;28;98844;-78
2022/02/01 07:30:23;;;;;;;27.45;8.38;;;;;;;6.58;60.03;100767.66;4899708;28;98426;-78
2022/02/01 07:32:50;;;;;;;24.05;8.20;;;;;;;6.25;60.54;100774.38;4901197;28;99710;-78
2022/02/01 07:35:16;;;;;;;22.88;8.48;;;;;;;6.38;60.36;100768.00;4896587;28;101398;-77
2022/02/01 07:37:43;;;;;;;22.73;8.00;;;;;;;6.53;59.66;100773.00;4903142;28;99600;-77
2022/02/01 07:40:10;;;;;;;27.83;9.23;;;;;;;6.79;58.98;100767.25;4898610;28;97636;-75
2022/02/01 07:42:38;;;;;;;25.65;7.07;;;;;;;6.74;58.71;100767.34;4904394;28;96794;-77
2022/02/01 07:45:06;;;;;;;21.05;7.80;;;;;;;7.01;58.48;100759.81;4899989;28;99235;-77
2022/02/01 07:50:02;;;;;;;23.60;8.18;;;;;;;6.35;60.34;100757.59;4899620;28;97012;-78
2022/02/01 07:52:28;;;;;;;20.65;7.15;;;;;;;6.86;59.14;100758.34;4904478;28;96942;-80
2022/02/01 07:54:55;;;;;;;22.65;7.28;;;;;;;6.89;58.66;100762.69;4903126;28;99635;-80
2022/02/01 07:57:22;;;;;;;22.40;6.45;;;;;;;7.28;57.35;100755.72;4902794;28;98952;-79
2022/02/01 07:59:50;;;;;;;23.80;7.38;;;;;;;7.06;57.96;100765.81;4902148;28;96733;-81
2022/02/01 08:02:20;;;;;;;17.77;6.50;;;;;;;7.01;58.23;100776.44;4910349;28;97151;-81
2022/02/01 08:04:48;;;;;;;22.90;6.50;;;;;;;7.26;57.48;100755.75;4903700;28;99193;-80
2022/02/01 08:07:23;;;;;;;17.80;6.50;;;;;;;7.26;57.40;100768.03;4907059;28;97746;-82
2022/02/01 08:19:05;;;;;;;19.50;4.40;;;;;;;6.80;59.20;100759.34;4847310;28;98808;-78
2022/02/01 08:21:42;;;;;;;23.60;5.72;;;;;;;7.58;57.01;100760.28;4898511;28;96719;-80
2022/02/01 08:24:08;;;;;;;24.80;5.78;;;;;;;6.27;59.97;100751.59;4898960;28;98092;-80
2022/02/01 08:26:35;;;;;;;19.65;4.60;;;;;;;6.86;59.05;100762.75;4900132;28;98140;-79
2022/02/01 08:29:02;;;;;;;22.92;5.20;;;;;;;7.03;58.69;100763.25;4900390;28;101875;-80
2022/02/01 08:31:30;;;;;;;20.52;4.70;;;;;;;6.99;57.93;100744.06;4894926;28;97324;-81
2022/02/01 08:33:56;;;;;;;27.88;5.00;;;;;;;6.98;58.15;100737.09;4896855;28;98734;-80
2022/02/01 08:36:41;;;;;;;24.13;4.55;;;;;;;7.29;57.76;100742.53;4895110;28;99692;-79
2022/02/01 08:39:07;;;;;;;23.60;4.60;;;;;;;7.35;57.08;100745.03;4894436;28;101211;-80
2022/02/01 08:41:35;;;;;;;24.77;5.07;;;;;;;7.33;57.32;100752.09;4893756;28;97180;-81
2022/02/01 08:44:02;;;;;;;28.92;4.97;;;;;;;7.44;57.28;100743.97;4903114;28;98099;-82
2022/02/01 08:46:30;;;;;;;29.15;5.60;;;;;;;7.82;56.16;100750.94;4908235;28;97840;-78
2022/02/01 08:48:57;;;;;;;24.75;5.10;;;;;;;7.61;56.50;100745.28;4912483;28;97883;-81
2022/02/01 08:51:26;;;;;;;19.70;4.13;;;;;;;6.63;59.04;100750.06;4905866;28;96961;-80
2022/02/01 08:53:58;;;;;;;21.80;4.65;;;;;;;7.46;57.48;100745.66;4901010;28;97311;-80
2022/02/01 08:59:29;;;;;;;22.98;4.63;;;;;;;6.62;58.90;100722.94;4908813;28;96864;-80
2022/02/01 09:02:02;;;;;;;20.88;3.97;;;;;;;7.43;57.39;100714.19;4900261;28;97315;-79
2022/02/01 09:04:29;;;;;;;28.88;4.13;;;;;;;7.63;56.55;100704.94;4885552;28;100382;-80
2022/02/01 09:06:56;;;;;;;25.80;4.45;;;;;;;7.59;56.54;100693.66;4895332;28;99004;-80
2022/02/01 09:09:41;;;;;;;20.27;4.78;;;;;;;7.74;55.80;100677.50;4900892;28;98856;-82
2022/02/01 09:12:10;;;;;;;25.42;4.32;;;;;;;8.01;55.28;100689.94;4893484;28;96798;-81
2022/02/01 09:14:37;;;;;;;23.90;4.68;;;;;;;7.51;56.19;100685.06;4896142;28;99415;-81
2022/02/01 09:17:07;;;;;;;26.35;3.88;;;;;;;8.13;55.05;100680.88;4896558;28;98168;-81
2022/02/01 09:19:34;;;;;;;20.17;4.28;;;;;;;7.69;56.47;100686.38;4912489;23;99583;-80
2022/02/01 09:22:01;;;;;;;21.35;3.38;;;;;;;7.69;56.07;100673.25;4910524;28;96978;-81
2022/02/01 09:34:34;;;;;;;17.58;2.63;;;;;;;7.96;55.40;100652.38;4821123;29;97152;-82
2022/02/01 09:40:55;;;;;;;19.92;3.22;;;;;;;7.11;57.34;100641.31;4801562;29;97124;-82
2022/02/01 09:43:47;;;;;;;31.70;3.35;;;;;;;7.83;56.04;100647.47;4807945;29;99400;-83
2022/02/01 09:46:16;;;;;;;29.77;3.20;;;;;;;7.74;56.58;100634.56;4808539;28;96897;-79
2022/02/01 09:48:50;;;;;;;17.75;2.88;;;;;;;7.91;55.98;100637.59;4881741;28;97318;-82
2022/02/01 09:51:19;;;;;;;20.85;2.83;;;;;;;7.83;55.90;100618.53;4885232;28;98078;-81
2022/02/01 09:53:47;;;;;;;26.38;3.95;;;;;;;8.29;54.49;100618.13;4884030;28;101124;-83
2022/02/01 09:59:16;;;;;;;18.90;3.33;;;;;;;8.12;55.27;100607.22;4850863;28;96993;-82
2022/02/01 10:01:56;;;;;;;;;;;;;;;;;;;;;
2022/02/01 10:18:17;;;;;;;24.92;3.47;;;;;;;8.63;53.42;100574.16;4758140;29;96982;-80
2022/02/01 10:20:45;;;;;;;29.17;4.03;;;;;;;8.21;54.54;100584.13;4850946;28;96939;-80
2022/02/01 10:23:28;;;;;;;21.52;3.17;;;;;;;8.80;52.94;100581.53;4890036;28;97651;-80
2022/02/01 10:26:03;;;;;;;19.55;3.20;;;;;;;8.25;54.10;100570.00;4889427;28;98486;-79
2022/02/01 10:31:31;;;;;;;18.60;2.83;;;;;;;8.28;54.56;100580.41;4866350;28;96956;-80
2022/02/01 10:34:42;;;;;;;24.27;4.05;;;;;;;8.64;53.55;100565.34;4877570;28;97751;-81
2022/02/01 10:37:20;;;;;;;19.70;3.78;;;;;;;8.37;54.45;100559.13;4878422;28;99371;-80
2022/02/01 10:40:05;;;;;;;;;;;;;;;;;;;;;
2022/02/01 10:42:35;;;;;;;19.58;2.50;;;;;;;8.32;54.13;100553.16;4868461;28;118238;-81
2022/02/01 10:48:59;;;;;;;;;;;;;;;;;;;;;
2022/02/01 10:51:28;;;;;;;14.93;2.33;;;;;;;8.22;54.00;100529.72;4868638;28;128067;-81
2022/02/01 11:02:29;;;;;;;23.45;3.15;;;;;;;8.74;52.47;100507.94;4911308;23;97080;-79
2022/02/01 11:04:58;;;;;;;20.02;3.40;;;;;;;9.01;51.61;100499.16;4896338;28;96794;-80
2022/02/01 11:07:26;;;;;;;18.20;3.35;;;;;;;8.70;51.77;100488.75;4895427;28;96891;-80
2022/02/01 11:09:52;;;;;;;21.10;3.38;;;;;;;8.77;52.18;100485.03;4890836;28;99359;-79
2022/02/01 11:12:19;;;;;;;21.48;3.20;;;;;;;8.72;52.77;100470.28;4892873;28;99246;-80
2022/02/01 11:14:48;;;;;;;14.77;2.85;;;;;;;7.95;53.50;100460.31;4893880;28;97603;-80
2022/02/01 11:17:17;;;;;;;15.00;3.35;;;;;;;8.34;53.78;100461.78;4895047;28;97723;-80
2022/02/01 11:19:51;;;;;;;17.67;3.58;;;;;;;8.50;53.71;100454.28;4894821;28;99244;-81
2022/02/01 11:22:23;;;;;;;23.08;3.38;;;;;;;8.99;52.40;100440.38;4894166;28;99179;-80
2022/02/01 11:24:58;;;;;;;17.48;2.97;;;;;;;8.80;52.79;100424.31;4895006;28;96968;-82
2022/02/01 11:30:11;;;;;;;27.67;4.10;;;;;;;8.86;52.79;100402.16;5002942;23;125512;-80
2022/02/01 11:32:49;;;;;;;16.30;3.03;;;;;;;9.11;52.00;100391.66;4935311;28;98823;-82
2022/02/01 11:35:23;;;;;;;18.88;2.80;;;;;;;9.04;51.96;100393.66;4934654;28;96794;-80
2022/02/01 11:37:52;;;;;;;20.92;2.97;;;;;;;8.87;52.27;100385.44;4936251;28;96983;-79
2022/02/01 11:40:22;;;;;;;18.13;2.90;;;;;;;8.83;52.59;100378.56;4935424;28;98766;-80
2022/02/01 11:42:58;;;;;;;16.77;3.10;;;;;;;9.01;52.41;100363.88;4934560;28;99427;-81
2022/02/01 11:45:44;;;;;;;17.10;3.05;;;;;;;8.93;52.22;100355.38;4936728;28;97685;-80
2022/02/01 11:48:18;;;;;;;32.53;3.22;;;;;;;7.83;55.06;100352.84;4955000;23;96872;-81
2022/02/01 11:50:54;;;;;;;24.05;2.78;;;;;;;8.30;53.88;100340.81;4916593;28;98371;-80
2022/02/01 11:53:31;;;;;;;16.98;2.75;;;;;;;8.71;53.20;100340.34;4920141;28;99653;-81
2022/02/01 11:56:00;;;;;;;18.70;3.08;;;;;;;9.11;51.65;100341.59;4918117;28;96826;-78
2022/02/01 11:58:29;;;;;;;12.35;2.90;;;;;;;8.67;52.98;100320.28;4916800;28;97172;-79
2022/02/01 12:01:07;;;;;;;16.25;2.70;;;;;;;8.79;52.33;100303.19;4909912;28;98735;-80
2022/02/01 12:07:44;;;;;;;16.50;2.53;;;;;;;8.64;52.61;100303.72;4902203;28;97198;-81
2022/02/01 12:10:12;;;;;;;;;;;;;;;9.02;51.92;100297.09;4841786;29;96950;-80
2022/02/01 12:12:44;;;;;;;;;;;;;;;9.22;51.03;100281.41;4899337;28;99437;-79
2022/02/01 12:15:33;;;;;;;14.32;2.40;;;;;;;9.59;50.18;100287.00;4913858;28;97183;-78
2022/02/01 12:21:21;;;;;;;17.67;2.47;;;;;;;8.79;51.68;100261.06;4894753;28;98068;-80
2022/02/01 12:23:54;;;;;;;10.82;2.45;;;;;;;8.98;51.30;100248.94;4903337;28;98048;-80
2022/02/01 12:26:37;;;;;;;12.32;2.20;;;;;;;9.15;51.48;100243.88;4916709;28;101550;-80
2022/02/01 12:32:28;;;;;;;21.90;3.22;;;;;;;9.10;50.90;100222.13;4902397;28;97363;-81
2022/02/01 12:34:55;;;;;;;21.00;2.72;;;;;;;9.36;50.30;100212.34;4921348;28;99242;-80
2022/02/01 12:37:39;;;;;;;15.25;2.15;;;;;;;8.96;51.30;100211.22;4915405;28;98834;-81
2022/02/01 12:40:37;;;;;;;15.32;2.50;;;;;;;9.18;50.90;100184.91;4908401;28;97058;-81
2022/02/01 12:43:15;;;;;;;13.98;2.17;;;;;;;8.69;51.90;100170.09;4905753;28;96843;-80
2022/02/01 12:45:55;;;;;;;18.55;2.28;;;;;;;9.07;51.55;100166.00;4916546;28;101667;-78
2022/02/01 12:48:22;;;;;;;19.05;3.22;;;;;;;9.18;51.12;100142.75;4910865;28;98164;-79
2022/02/01 12:51:00;;;;;;;13.57;2.53;;;;;;;9.31;50.60;100133.44;4916495;28;96893;-79
2022/02/01 12:53:27;;;;;;;12.90;2.00;;;;;;;9.16;50.99;100103.25;4912622;28;96961;-79
2022/02/01 13:00:04;;;;;;;11.93;1.90;;;;;;;8.76;52.20;100082.88;4870024;28;98467;-80
2022/02/01 13:02:46;;;;;;;20.48;2.50;;;;;;;8.58;53.78;100066.94;4836153;28;97281;-80
2022/02/01 13:05:21;;;;;;;10.95;1.88;;;;;;;8.74;53.02;100055.72;4904075;28;97072;-81
2022/02/01 13:07:56;;;;;;;11.77;2.28;;;;;;;8.74;53.34;100034.66;4911610;28;99004;-79
2022/02/01 13:16:24;;;;;;;13.07;2.10;;;;;;;8.96;53.35;99999.56;4912783;28;96683;-79
2022/02/01 13:21:46;;;;;;;9.07;1.75;;;;;;;8.46;55.14;99975.25;4908268;28;98553;-80
2022/02/01 13:24:16;;;;;;;15.68;1.90;;;;;;;8.74;54.33;99978.47;4913359;28;97226;-80
2022/02/01 13:26:45;;;;;;;13.15;1.88;;;;;;;8.38;55.92;99950.06;4911935;28;96909;-81
2022/02/01 13:29:14;;;;;;;12.02;1.95;;;;;;;8.58;55.51;99946.66;4919722;28;98905;-79
2022/02/01 13:31:46;;;;;;;13.40;1.88;;;;;;;8.73;54.90;99934.63;4913231;28;99358;-78
2022/02/01 13:34:15;;;;;;;8.13;1.88;;;;;;;8.60;55.19;99928.16;4915340;28;97381;-80
2022/02/01 13:36:47;;;;;;;14.75;2.00;;;;;;;8.07;56.46;99920.56;4913742;28;96893;-80
2022/02/01 13:39:24;;;;;;;14.65;2.05;;;;;;;8.19;56.33;99917.44;4913512;28;98941;-80
2022/02/01 13:41:59;;;;;;;9.38;2.00;;;;;;;7.70;57.91;99917.56;4916245;28;97684;-82
2022/02/01 13:44:27;;;;;;;14.45;2.13;;;;;;;8.23;57.05;99905.03;4923335;28;96838;-79
2022/02/01 13:47:02;;;;;;;12.20;2.17;;;;;;;8.30;57.10;99888.97;4917117;28;96938;-78
2022/02/01 13:52:41;;;;;;;13.23;1.88;;;;;;;7.69;59.38;99879.91;4912924;28;96675;-82
2022/02/01 13:55:18;;;;;;;7.80;1.67;;;;;;;7.94;59.32;99891.19;4932455;28;96627;-81
2022/02/01 13:57:45;;;;;;;10.93;1.60;;;;;;;7.83;58.72;99876.75;4930896;28;96616;-81
2022/02/01 14:00:13;;;;;;;9.07;2.13;;;;;;;7.38;60.29;99853.91;4933475;28;100568;-79